Time;durP1;ratioP1;P1;durP2;ratioP2;P2;SDS_P1;SDS_P2;PMS_P1;PMS_P2;Temp;Humidity;BMP_temperature;BMP_pressure;BME280_temperature;BME280_humidity;BME280_pressure;Samples;Min_cycle;Max_cycle;Signal;HPM_P1;HPM_P2
2021/06/22 00:00:00;;;;;;;8.95;3.33;;;;;;;;;;10348495;28;20120;-60
2021/06/22 00:04:57;;;;;;;9.90;2.90;;;;;;;;;;10307703;28;20112;-60
2021/06/22 00:09:55;;;;;;;8.97;2.73;;;;;;;;;;10309444;28;20404;-60
2021/06/22 00:14:52;;;;;;;7.47;2.80;;;;;;;;;;10317536;28;20123;-60
2021/06/22 00:19:50;;;;;;;6.03;2.90;;;;;;;;;;10310584;28;20508;-61
2021/06/22 00:24:47;;;;;;;7.23;2.80;;;;;;;;;;10316742;28;20068;-60
2021/06/22 00:29:49;;;;;;;7.13;3.43;;;;;;;;;;10329470;28;20420;-62
2021/06/22 00:34:46;;;;;;;6.68;2.67;;;;;;;;;;10292926;28;20041;-60
2021/06/22 00:39:44;;;;;;;7.67;3.20;;;;;;;;;;10306361;28;20042;-61
2021/06/22 00:44:46;;;;;;;9.68;3.00;;;;;;;;;;10332531;28;20044;-60
2021/06/22 00:49:44;;;;;;;6.70;2.58;;;;;;;;;;10289932;28;20696;-62
2021/06/22 00:54:43;;;;;;;7.72;2.75;;;;;;;;;;10307541;28;20037;-60
2021/06/22 00:59:41;;;;;;;9.97;3.20;;;;;;;;;;10307930;28;20771;-60
2021/06/22 01:04:39;;;;;;;9.37;2.93;;;;;;;;;;10304931;28;20124;-60
2021/06/22 01:09:56;;;;;;;7.07;2.95;;;;;;;;;;10306634;28;20037;-60
2021/06/22 01:14:54;;;;;;;11.00;2.72;;;;;;;;;;10312592;28;20049;-60
2021/06/22 01:19:52;;;;;;;11.20;3.37;;;;;;;;;;10301812;28;20044;-60
2021/06/22 01:24:53;;;;;;;6.30;2.80;;;;;;;;;;10331548;28;20421;-61
2021/06/22 01:29:52;;;;;;;7.38;3.03;;;;;;;;;;10303787;28;20029;-61
2021/06/22 01:34:49;;;;;;;8.25;3.22;;;;;;;;;;10330298;28;20413;-60
2021/06/22 01:39:48;;;;;;;6.70;2.40;;;;;;;;;;10302429;28;20040;-60
2021/06/22 01:44:50;;;;;;;6.75;3.13;;;;;;;;;;10330463;28;20028;-62
2021/06/22 01:50:03;;;;;;;8.25;2.70;;;;;;;;;;10324551;28;20065;-61
2021/06/22 01:55:34;;;;;;;11.82;2.47;;;;;;;;;;10330234;28;20540;-60
2021/06/22 02:00:23;;;;;;;8.13;2.80;;;;;;;;;;10288806;28;20037;-60
2021/06/22 02:05:21;;;;;;;6.97;2.90;;;;;;;;;;10321328;28;20043;-61
2021/06/22 02:10:19;;;;;;;7.90;2.73;;;;;;;;;;10309029;28;20142;-60
2021/06/22 02:15:55;;;;;;;10.00;2.83;;;;;;;;;;10164618;28;20058;-60
2021/06/22 02:20:53;;;;;;;6.43;2.42;;;;;;;;;;10296421;28;20221;-60
2021/06/22 02:25:52;;;;;;;9.23;2.92;;;;;;;;;;10321777;28;20028;-60
2021/06/22 02:30:50;;;;;;;11.33;3.37;;;;;;;;;;10319133;28;20511;-60
2021/06/22 02:35:48;;;;;;;8.10;2.55;;;;;;;;;;10336242;28;20036;-59
2021/06/22 02:40:46;;;;;;;8.23;2.50;;;;;;;;;;10316960;28;20211;-59
2021/06/22 02:45:44;;;;;;;7.90;2.70;;;;;;;;;;10315066;28;20474;-60
2021/06/22 02:50:49;;;;;;;10.82;3.05;;;;;;;;;;10326885;28;20639;-60
2021/06/22 02:55:50;;;;;;;9.95;2.72;;;;;;;;;;10304589;28;20037;-60
2021/06/22 03:00:48;;;;;;;6.82;2.47;;;;;;;;;;10311745;28;20041;-59
2021/06/22 03:05:45;;;;;;;7.40;2.23;;;;;;;;;;10308205;28;20059;-59
2021/06/22 03:10:51;;;;;;;6.22;2.55;;;;;;;;;;10314964;28;20485;-60
2021/06/22 03:15:48;;;;;;;11.03;2.77;;;;;;;;;;10336625;28;20086;-60
2021/06/22 03:20:46;;;;;;;6.63;2.93;;;;;;;;;;10320985;28;20029;-58
2021/06/22 03:25:47;;;;;;;9.48;2.70;;;;;;;;;;10330441;28;20029;-59
2021/06/22 03:30:46;;;;;;;6.33;2.77;;;;;;;;;;10327189;28;20493;-60
2021/06/22 03:35:43;;;;;;;10.43;3.35;;;;;;;;;;10305832;28;20032;-60
2021/06/22 03:40:41;;;;;;;9.10;2.50;;;;;;;;;;10317705;28;20528;-60
2021/06/22 03:45:38;;;;;;;9.53;3.67;;;;;;;;;;10313859;28;20041;-59
2021/06/22 03:50:36;;;;;;;8.50;2.70;;;;;;;;;;10295829;28;20041;-60
2021/06/22 03:55:34;;;;;;;9.20;2.47;;;;;;;;;;10348493;28;20036;-61
2021/06/22 04:00:41;;;;;;;11.02;2.75;;;;;;;;;;10355070;28;20055;-59
2021/06/22 04:05:40;;;;;;;6.97;2.55;;;;;;;;;;10376074;28;20124;-60
2021/06/22 04:11:07;;;;;;;4.22;2.53;;;;;;;;;;10326640;28;20884;-60
2021/06/22 04:16:05;;;;;;;7.70;2.50;;;;;;;;;;10348803;28;20582;-61
2021/06/22 04:21:03;;;;;;;6.27;2.60;;;;;;;;;;10355219;28;20028;-62
2021/06/22 04:26:12;;;;;;;6.68;2.78;;;;;;;;;;10336025;28;20033;-60
2021/06/22 04:31:09;;;;;;;9.10;2.70;;;;;;;;;;10330158;22;20133;-68
2021/06/22 04:36:07;;;;;;;7.37;2.30;;;;;;;;;;10370723;22;20049;-67
2021/06/22 04:41:04;;;;;;;5.27;2.50;;;;;;;;;;10357356;28;20032;-68
2021/06/22 04:46:02;;;;;;;11.17;2.40;;;;;;;;;;10324870;28;20418;-69
2021/06/22 04:50:59;;;;;;;6.40;1.97;;;;;;;;;;10322104;28;20033;-68
2021/06/22 04:55:57;;;;;;;6.40;2.57;;;;;;;;;;10317155;28;20539;-69
2021/06/22 05:00:54;;;;;;;5.17;2.00;;;;;;;;;;10332814;22;20216;-65
2021/06/22 05:05:52;;;;;;;9.43;2.17;;;;;;;;;;10311873;22;20064;-69
2021/06/22 05:10:49;;;;;;;9.23;2.13;;;;;;;;;;10286949;28;20029;-65
2021/06/22 05:15:47;;;;;;;5.67;2.43;;;;;;;;;;10299040;28;20032;-65
2021/06/22 05:20:44;;;;;;;8.73;2.50;;;;;;;;;;10294707;28;20038;-64
2021/06/22 05:25:42;;;;;;;6.53;2.37;;;;;;;;;;10286221;28;20025;-66
2021/06/22 05:30:39;;;;;;;9.50;2.83;;;;;;;;;;10288413;28;20041;-65
2021/06/22 05:35:37;;;;;;;7.40;2.60;;;;;;;;;;10304578;28;20504;-65
2021/06/22 05:40:34;;;;;;;10.53;3.17;;;;;;;;;;10303166;28;20041;-66
2021/06/22 05:45:32;;;;;;;8.30;2.90;;;;;;;;;;10281017;28;20557;-66
2021/06/22 05:50:29;;;;;;;10.40;3.27;;;;;;;;;;10306562;28;20524;-66
2021/06/22 05:55:27;;;;;;;8.00;2.83;;;;;;;;;;10288237;28;20068;-64
2021/06/22 06:00:25;;;;;;;6.90;3.10;;;;;;;;;;10293588;28;20042;-66
2021/06/22 06:05:23;;;;;;;10.07;3.28;;;;;;;;;;10288844;28;20105;-66
2021/06/22 06:10:21;;;;;;;11.17;3.30;;;;;;;;;;10272759;28;20072;-66
2021/06/22 06:15:19;;;;;;;8.00;2.97;;;;;;;;;;10294108;28;20049;-66
2021/06/22 06:20:17;;;;;;;7.85;2.65;;;;;;;;;;10293482;28;20105;-65
2021/06/22 06:25:15;;;;;;;6.20;2.73;;;;;;;;;;10300138;28;20506;-65
2021/06/22 06:30:17;;;;;;;10.38;2.95;;;;;;;;;;10288237;28;20475;-65
2021/06/22 06:35:15;;;;;;;12.25;3.10;;;;;;;;;;10299577;28;20037;-66
2021/06/22 06:40:13;;;;;;;;;;;;;;;;;;10296260;28;20486;-66
2021/06/22 06:45:11;;;;;;;13.17;3.83;;;;;;;;;;10290470;28;19913;-65
2021/06/22 06:50:08;;;;;;;13.88;3.78;;;;;;;;;;10297880;28;20041;-66
2021/06/22 06:55:24;;;;;;;12.30;3.40;;;;;;;;;;10256628;28;20036;-68
2021/06/22 07:00:23;;;;;;;6.63;2.75;;;;;;;;;;10297538;28;20041;-69
2021/06/22 07:05:21;;;;;;;13.10;3.35;;;;;;;;;;10288932;28;20045;-65
2021/06/22 07:10:18;;;;;;;7.93;2.80;;;;;;;;;;10266686;28;20037;-66
2021/06/22 07:15:16;;;;;;;8.07;3.17;;;;;;;;;;10288746;28;20368;-64
2021/06/22 07:20:15;;;;;;;7.47;2.90;;;;;;;;;;10291254;28;20039;-65
2021/06/22 07:25:13;;;;;;;7.88;2.55;;;;;;;;;;10288293;28;20091;-63
2021/06/22 07:30:11;;;;;;;6.95;2.88;;;;;;;;;;10285137;28;20049;-66
2021/06/22 07:35:09;;;;;;;8.13;2.80;;;;;;;;;;10282632;28;20044;-69
2021/06/22 07:40:07;;;;;;;9.60;2.58;;;;;;;;;;10296853;28;20033;-65
2021/06/22 07:45:16;;;;;;;7.20;2.83;;;;;;;;;;10255676;28;20072;-66
2021/06/22 07:50:14;;;;;;;7.95;2.58;;;;;;;;;;10362097;22;20044;-64
2021/06/22 07:55:15;;;;;;;7.20;2.37;;;;;;;;;;10392949;28;20028;-63
2021/06/22 08:00:38;;;;;;;9.02;2.72;;;;;;;;;;10359888;28;20518;-66
2021/06/22 08:05:36;;;;;;;8.00;2.28;;;;;;;;;;10350969;28;20025;-63
2021/06/22 08:10:34;;;;;;;8.87;1.83;;;;;;;;;;10350490;28;20032;-64
2021/06/22 08:15:31;;;;;;;4.93;2.95;;;;;;;;;;10369273;22;20318;-71
2021/06/22 08:20:29;;;;;;;5.77;1.53;;;;;;;;;;10328883;28;20045;-68
2021/06/22 08:25:27;;;;;;;8.50;2.00;;;;;;;;;;10323669;22;20064;-64
2021/06/22 08:30:24;;;;;;;;;;;;;;;;;;10275213;28;20488;-63
2021/06/22 08:35:22;;;;;;;6.10;1.67;;;;;;;;;;10290713;28;19948;-63
2021/06/22 08:40:19;;;;;;;6.38;1.80;;;;;;;;;;10302672;28;20053;-63
2021/06/22 08:45:17;;;;;;;7.90;1.87;;;;;;;;;;10306733;28;20055;-63
2021/06/22 08:50:15;;;;;;;8.68;1.92;;;;;;;;;;10307941;28;21625;-64
2021/06/22 08:55:26;;;;;;;5.43;1.88;;;;;;;;;;10330315;22;20796;-64
2021/06/22 09:00:24;;;;;;;9.82;1.90;;;;;;;;;;10295173;28;20075;-64
2021/06/22 09:05:23;;;;;;;7.20;1.65;;;;;;;;;;10295809;28;20041;-64
2021/06/22 09:10:24;;;;;;;7.05;2.10;;;;;;;;;;10272187;28;20041;-66
2021/06/22 09:15:24;;;;;;;6.70;1.67;;;;;;;;;;10270849;28;20041;-66
2021/06/22 09:20:40;;;;;;;8.48;1.90;;;;;;;;;;10276138;28;20176;-67
2021/06/22 09:25:38;;;;;;;7.50;2.25;;;;;;;;;;10282821;28;20116;-66
2021/06/22 09:30:35;;;;;;;;;;;;;;;;;;10296815;28;20555;-65
2021/06/22 09:35:33;;;;;;;7.65;1.92;;;;;;;;;;10283603;28;19920;-65
2021/06/22 09:40:30;;;;;;;;;;;;;;;;;;10272204;28;20037;-65
2021/06/22 09:45:28;;;;;;;5.05;2.03;;;;;;;;;;10278033;28;19921;-63
2021/06/22 09:50:42;;;;;;;6.40;1.77;;;;;;;;;;10278052;28;20037;-63
2021/06/22 09:55:40;;;;;;;6.30;1.48;;;;;;;;;;10297477;28;20467;-66
2021/06/22 10:00:37;;;;;;;;;;;;;;;;;;10278270;28;20620;-65
2021/06/22 10:05:51;;;;;;;3.28;1.50;;;;;;;;;;10283698;28;19913;-66
2021/06/22 10:10:49;;;;;;;6.50;1.90;;;;;;;;;;10291769;28;20038;-65
2021/06/22 10:16:07;;;;;;;4.15;1.80;;;;;;;;;;10273336;28;20125;-65
2021/06/22 10:21:05;;;;;;;5.40;1.90;;;;;;;;;;10291407;28;20048;-66
2021/06/22 10:26:02;;;;;;;;;;;;;;;;;;10293985;28;20518;-65
2021/06/22 10:31:00;;;;;;;7.40;1.77;;;;;;;;;;10291058;28;20126;-66
2021/06/22 10:35:57;;;;;;;;;;;;;;;;;;10286331;28;20073;-65
2021/06/22 10:40:55;;;;;;;4.17;1.47;;;;;;;;;;10284213;28;19964;-65
2021/06/22 10:45:54;;;;;;;4.43;1.40;;;;;;;;;;10285400;28;20715;-66
2021/06/22 10:50:52;;;;;;;6.72;2.28;;;;;;;;;;10277726;28;20038;-66
2021/06/22 10:55:49;;;;;;;;;;;;;;;;;;10272009;28;20041;-65
2021/06/22 11:00:49;;;;;;;5.05;1.95;;;;;;;;;;10288695;28;19944;-65
2021/06/22 11:05:48;;;;;;;4.85;1.48;;;;;;;;;;10276416;28;20514;-65
2021/06/22 11:10:45;;;;;;;;;;;;;;;;;;10277849;28;20409;-65
2021/06/22 11:15:48;;;;;;;5.13;1.70;;;;;;;;;;10279410;28;19913;-66
2021/06/22 11:21:05;;;;;;;7.22;2.03;;;;;;;;;;10285728;28;20060;-65
2021/06/22 11:26:03;;;;;;;3.92;1.33;;;;;;;;;;10248526;28;20140;-65
2021/06/22 11:31:01;;;;;;;4.45;1.73;;;;;;;;;;10250777;28;20119;-65
2021/06/22 11:36:17;;;;;;;5.10;1.50;;;;;;;;;;10265937;28;20037;-65
2021/06/22 11:41:16;;;;;;;6.03;1.67;;;;;;;;;;10263072;28;20124;-65
2021/06/22 11:46:26;;;;;;;4.78;1.30;;;;;;;;;;10262115;28;20123;-65
2021/06/22 11:51:42;;;;;;;3.10;1.02;;;;;;;;;;10285380;28;20049;-65
2021/06/22 11:56:40;;;;;;;6.60;1.60;;;;;;;;;;10291677;28;20353;-65
2021/06/22 12:01:44;;;;;;;5.78;1.70;;;;;;;;;;10274251;28;20459;-66
2021/06/22 12:06:42;;;;;;;4.85;1.17;;;;;;;;;;10258676;28;20326;-65
2021/06/22 12:11:43;;;;;;;4.53;1.30;;;;;;;;;;10264205;28;20041;-65
2021/06/22 12:16:44;;;;;;;3.70;1.20;;;;;;;;;;10267623;28;20036;-66
2021/06/22 12:21:44;;;;;;;3.83;1.10;;;;;;;;;;10288969;28;20048;-67
2021/06/22 12:26:43;;;;;;;4.63;1.30;;;;;;;;;;10284219;28;20110;-66
2021/06/22 12:31:47;;;;;;;4.35;1.40;;;;;;;;;;10274355;28;20052;-66
2021/06/22 12:36:45;;;;;;;6.40;1.23;;;;;;;;;;10294713;28;20049;-66
2021/06/22 12:41:43;;;;;;;3.83;1.30;;;;;;;;;;10291663;28;20025;-66
2021/06/22 12:46:42;;;;;;;3.95;1.13;;;;;;;;;;10279276;28;20303;-67
2021/06/22 12:51:41;;;;;;;3.83;1.20;;;;;;;;;;10288895;28;20147;-66
2021/06/22 12:57:04;;;;;;;5.47;1.65;;;;;;;;;;10274257;28;20152;-67
2021/06/22 13:02:06;;;;;;;3.90;1.20;;;;;;;;;;10270517;28;20069;-66
2021/06/22 13:07:07;;;;;;;219.30;44.35;;;;;;;;;;10289822;28;20022;-67
2021/06/22 13:12:18;;;;;;;333.17;77.65;;;;;;;;;;10293224;28;20139;-67
2021/06/22 13:17:27;;;;;;;211.80;44.55;;;;;;;;;;10299772;28;20167;-67
2021/06/22 13:22:32;;;;;;;158.38;37.63;;;;;;;;;;10294817;28;20058;-67
2021/06/22 13:27:29;;;;;;;157.60;35.33;;;;;;;;;;10291459;28;20046;-66
2021/06/22 13:32:37;;;;;;;119.20;27.70;;;;;;;;;;10295850;28;20041;-67
2021/06/22 13:37:50;;;;;;;94.20;23.05;;;;;;;;;;10289207;28;20041;-66
2021/06/22 13:43:06;;;;;;;83.43;19.85;;;;;;;;;;10290426;28;20045;-67
2021/06/22 13:48:04;;;;;;;74.30;16.50;;;;;;;;;;10300241;28;20036;-66
2021/06/22 13:53:03;;;;;;;49.38;12.88;;;;;;;;;;10290617;28;20523;-66
2021/06/22 13:58:10;;;;;;;46.08;12.02;;;;;;;;;;10295705;28;20057;-67
2021/06/22 14:03:09;;;;;;;34.30;9.73;;;;;;;;;;10284499;28;20098;-66
2021/06/22 14:08:07;;;;;;;25.77;7.55;;;;;;;;;;10294850;28;20053;-67
2021/06/22 14:13:05;;;;;;;23.05;7.32;;;;;;;;;;10281040;28;20053;-66
2021/06/22 14:18:03;;;;;;;17.83;4.90;;;;;;;;;;10299011;28;20650;-67
2021/06/22 14:23:01;;;;;;;20.48;5.68;;;;;;;;;;10306152;28;20041;-67
2021/06/22 14:27:59;;;;;;;11.93;3.80;;;;;;;;;;10287027;28;20037;-67
2021/06/22 14:32:56;;;;;;;13.57;3.60;;;;;;;;;;10286669;28;20030;-67
2021/06/22 14:37:54;;;;;;;11.35;3.28;;;;;;;;;;10288487;28;20377;-66
2021/06/22 14:42:51;;;;;;;8.50;2.95;;;;;;;;;;10288825;28;20041;-67
2021/06/22 14:47:50;;;;;;;8.93;2.58;;;;;;;;;;10297904;28;20072;-67
2021/06/22 14:52:48;;;;;;;5.38;1.92;;;;;;;;;;10300492;28;20080;-67
2021/06/22 14:57:45;;;;;;;5.43;1.90;;;;;;;;;;10282020;28;20504;-67
2021/06/22 15:02:43;;;;;;;5.57;1.63;;;;;;;;;;10276919;28;20396;-66
2021/06/22 15:07:40;;;;;;;5.47;1.65;;;;;;;;;;10287741;28;20029;-67
2021/06/22 15:12:40;;;;;;;5.60;1.50;;;;;;;;;;10287359;28;20525;-67
2021/06/22 15:17:37;;;;;;;4.45;1.35;;;;;;;;;;10291107;28;20519;-67
2021/06/22 15:22:36;;;;;;;4.25;1.58;;;;;;;;;;10286421;28;20506;-67
2021/06/22 15:27:34;;;;;;;6.35;1.73;;;;;;;;;;10301382;28;20022;-67
2021/06/22 15:32:31;;;;;;;5.22;1.77;;;;;;;;;;10273188;28;20034;-66
2021/06/22 15:37:29;;;;;;;3.88;1.40;;;;;;;;;;10276771;28;20405;-67
2021/06/22 15:42:26;;;;;;;4.38;1.50;;;;;;;;;;10289507;28;20037;-67
2021/06/22 15:47:24;;;;;;;3.43;1.40;;;;;;;;;;10275240;28;20026;-67
2021/06/22 15:52:21;;;;;;;6.40;1.67;;;;;;;;;;10285509;28;20701;-67
2021/06/22 15:57:19;;;;;;;3.88;1.50;;;;;;;;;;10274797;28;20124;-67
2021/06/22 16:02:16;;;;;;;5.53;1.80;;;;;;;;;;10273647;28;20448;-67
2021/06/22 16:07:14;;;;;;;8.27;1.67;;;;;;;;;;10276030;28;20634;-66
2021/06/22 16:12:11;;;;;;;4.10;1.67;;;;;;;;;;10271055;28;20045;-67
2021/06/22 16:17:09;;;;;;;5.83;2.20;;;;;;;;;;10280195;28;20065;-67
2021/06/22 16:22:06;;;;;;;5.53;1.98;;;;;;;;;;10280179;28;20144;-67
2021/06/22 16:27:04;;;;;;;5.47;1.93;;;;;;;;;;10282143;28;20045;-67
2021/06/22 16:32:01;;;;;;;4.80;1.92;;;;;;;;;;10272403;28;20322;-66
2021/06/22 16:36:59;;;;;;;5.25;2.05;;;;;;;;;;10297269;28;20050;-67
2021/06/22 16:41:57;;;;;;;2.67;1.67;;;;;;;;;;10278802;28;20046;-67
2021/06/22 16:46:56;;;;;;;5.63;2.10;;;;;;;;;;10271671;28;20038;-66
2021/06/22 16:51:53;;;;;;;5.03;1.88;;;;;;;;;;10279831;28;20049;-67
2021/06/22 16:56:51;;;;;;;6.07;2.00;;;;;;;;;;10289424;28;20033;-67
2021/06/22 17:01:48;;;;;;;7.13;2.33;;;;;;;;;;10293958;28;20117;-67
2021/06/22 17:06:48;;;;;;;4.68;1.88;;;;;;;;;;10293707;28;20034;-67
2021/06/22 17:11:45;;;;;;;4.40;1.80;;;;;;;;;;10314127;28;20087;-66
2021/06/22 17:16:43;;;;;;;5.82;2.08;;;;;;;;;;10289707;28;20526;-67
2021/06/22 17:21:40;;;;;;;5.77;2.03;;;;;;;;;;10293780;28;20046;-67
2021/06/22 17:26:38;;;;;;;4.68;1.88;;;;;;;;;;10295787;28;21532;-67
2021/06/22 17:31:35;;;;;;;3.72;1.70;;;;;;;;;;10287664;28;20277;-67
2021/06/22 17:36:35;;;;;;;4.95;1.50;;;;;;;;;;10291625;28;20029;-66
2021/06/22 17:41:33;;;;;;;4.15;1.60;;;;;;;;;;10292941;28;20080;-67
2021/06/22 17:46:30;;;;;;;;;;;;;;;;;;10285842;28;20056;-67
2021/06/22 17:51:28;;;;;;;7.82;2.20;;;;;;;;;;10284020;28;19913;-66
2021/06/22 17:56:25;;;;;;;5.27;1.77;;;;;;;;;;10286864;28;20403;-66
2021/06/22 18:01:22;;;;;;;;;;;;;;;;;;10293296;28;20823;-66
2021/06/22 18:06:20;;;;;;;5.17;1.80;;;;;;;;;;10291217;28;19971;-67
2021/06/22 18:11:17;;;;;;;;;;;;;;;;;;10297864;28;20042;-67
2021/06/22 18:16:15;;;;;;;7.47;1.50;;;;;;;;;;10294100;28;20388;-67
2021/06/22 18:21:12;;;;;;;;;;;;;;;;;;10281319;28;20041;-68
2021/06/22 18:26:10;;;;;;;4.30;1.25;;;;;;;;;;10279740;28;19918;-66
2021/06/22 18:31:07;;;;;;;;;;;;;;;;;;10277724;28;20492;-66
2021/06/22 18:36:06;;;;;;;3.22;1.00;;;;;;;;;;10275332;28;19928;-68
2021/06/22 18:41:04;;;;;;;4.60;1.20;;;;;;;;;;10275781;28;20074;-67
2021/06/22 18:46:05;;;;;;;6.78;1.30;;;;;;;;;;10277831;28;20069;-67
2021/06/22 18:51:03;;;;;;;3.95;1.10;;;;;;;;;;10283659;28;20491;-66
2021/06/22 18:56:00;;;;;;;4.22;1.33;;;;;;;;;;10264612;28;20198;-67
2021/06/22 19:01:01;;;;;;;7.10;1.43;;;;;;;;;;10279060;28;20037;-67
2021/06/22 19:05:58;;;;;;;9.38;1.58;;;;;;;;;;10278754;28;20591;-66
2021/06/22 19:10:56;;;;;;;5.63;1.47;;;;;;;;;;10277263;28;20116;-66
2021/06/22 19:15:53;;;;;;;5.50;0.97;;;;;;;;;;10275805;28;20038;-67
2021/06/22 19:20:51;;;;;;;3.80;1.00;;;;;;;;;;10269815;28;20467;-66
2021/06/22 19:25:48;;;;;;;7.20;1.30;;;;;;;;;;10266671;28;20399;-66
2021/06/22 19:30:47;;;;;;;7.47;1.33;;;;;;;;;;10287031;28;20217;-67
2021/06/22 19:35:44;;;;;;;6.57;1.30;;;;;;;;;;10288400;28;20088;-67
2021/06/22 19:40:42;;;;;;;7.93;1.30;;;;;;;;;;10282030;28;20641;-67
2021/06/22 19:45:39;;;;;;;5.17;1.10;;;;;;;;;;10283934;28;20195;-67
2021/06/22 19:50:37;;;;;;;3.47;1.00;;;;;;;;;;10288271;28;20048;-67
2021/06/22 19:55:34;;;;;;;5.77;1.10;;;;;;;;;;10292618;28;20045;-66
2021/06/22 20:00:32;;;;;;;7.23;1.40;;;;;;;;;;10286788;28;20491;-67
2021/06/22 20:05:30;;;;;;;5.80;1.35;;;;;;;;;;10273340;28;20029;-65
2021/06/22 20:10:27;;;;;;;6.90;1.63;;;;;;;;;;10288801;28;20052;-67
2021/06/22 20:15:25;;;;;;;5.97;1.50;;;;;;;;;;10282319;28;20133;-67
2021/06/22 20:20:22;;;;;;;7.40;1.60;;;;;;;;;;10293856;28;20030;-67
2021/06/22 20:25:20;;;;;;;8.57;1.80;;;;;;;;;;10281582;28;20038;-66
2021/06/22 20:30:18;;;;;;;7.70;1.43;;;;;;;;;;10274271;28;20038;-66
2021/06/22 20:35:15;;;;;;;5.30;1.50;;;;;;;;;;10272918;28;20045;-67
2021/06/22 20:40:13;;;;;;;6.20;1.50;;;;;;;;;;10300847;28;20041;-66
2021/06/22 20:45:11;;;;;;;4.45;1.25;;;;;;;;;;10272096;28;20534;-68
2021/06/22 20:50:08;;;;;;;3.72;1.15;;;;;;;;;;10269457;28;20054;-67
2021/06/22 20:55:06;;;;;;;4.15;1.10;;;;;;;;;;10281158;28;20045;-66
2021/06/22 21:00:04;;;;;;;5.37;1.47;;;;;;;;;;10283219;28;20061;-67
2021/06/22 21:05:01;;;;;;;3.65;1.27;;;;;;;;;;10275771;28;20032;-67
2021/06/22 21:09:59;;;;;;;4.60;1.27;;;;;;;;;;10268786;28;20620;-66
2021/06/22 21:14:57;;;;;;;4.55;1.00;;;;;;;;;;10287884;28;20092;-66
2021/06/22 21:19:54;;;;;;;5.43;1.23;;;;;;;;;;10290617;28;20121;-67
2021/06/22 21:24:52;;;;;;;6.43;1.23;;;;;;;;;;10278279;28;20044;-67
2021/06/22 21:29:49;;;;;;;6.43;1.43;;;;;;;;;;10282721;28;20037;-66
2021/06/22 21:34:47;;;;;;;4.93;1.20;;;;;;;;;;10288512;28;20583;-67
2021/06/22 21:39:44;;;;;;;7.10;1.57;;;;;;;;;;10286849;28;20107;-66
2021/06/22 21:44:42;;;;;;;5.97;1.23;;;;;;;;;;10286637;28;20164;-67
2021/06/22 21:49:40;;;;;;;5.97;1.30;;;;;;;;;;10286618;28;20072;-67
2021/06/22 21:54:37;;;;;;;2.70;1.10;;;;;;;;;;10291941;28;20045;-67
2021/06/22 21:59:35;;;;;;;3.30;1.13;;;;;;;;;;10295296;28;20535;-67
2021/06/22 22:04:34;;;;;;;7.13;1.57;;;;;;;;;;10285500;28;20032;-67
2021/06/22 22:09:31;;;;;;;4.82;1.13;;;;;;;;;;10290956;28;20037;-67
2021/06/22 22:14:29;;;;;;;5.57;1.40;;;;;;;;;;10282061;28;20033;-67
2021/06/22 22:19:26;;;;;;;5.37;1.07;;;;;;;;;;10288458;28;20044;-67
2021/06/22 22:24:23;;;;;;;5.40;1.20;;;;;;;;;;10281589;28;20038;-67
2021/06/22 22:29:21;;;;;;;3.23;1.50;;;;;;;;;;10294660;28;20045;-67
2021/06/22 22:34:18;;;;;;;3.60;1.13;;;;;;;;;;10310881;28;20033;-67
2021/06/22 22:39:16;;;;;;;5.00;1.30;;;;;;;;;;10289625;28;20037;-67
2021/06/22 22:44:13;;;;;;;3.13;1.00;;;;;;;;;;10303412;28;20036;-66
2021/06/22 22:49:11;;;;;;;3.77;1.37;;;;;;;;;;10290117;28;20118;-67
2021/06/22 22:54:08;;;;;;;5.83;1.33;;;;;;;;;;10295983;28;20037;-65
2021/06/22 22:59:06;;;;;;;4.43;1.10;;;;;;;;;;10301777;28;20033;-67
2021/06/22 23:04:03;;;;;;;5.17;1.30;;;;;;;;;;10299261;28;20033;-67
2021/06/22 23:09:00;;;;;;;3.10;1.20;;;;;;;;;;10289736;28;20488;-67
2021/06/22 23:13:58;;;;;;;4.87;1.43;;;;;;;;;;10290424;28;20033;-67
2021/06/22 23:18:56;;;;;;;5.77;1.87;;;;;;;;;;10289839;28;20026;-66
2021/06/22 23:23:53;;;;;;;8.40;1.42;;;;;;;;;;10294907;28;20040;-67
2021/06/22 23:28:51;;;;;;;4.47;1.47;;;;;;;;;;10292743;28;20511;-67
2021/06/22 23:33:48;;;;;;;5.37;1.40;;;;;;;;;;10292733;28;20032;-67
2021/06/22 23:38:46;;;;;;;5.97;1.30;;;;;;;;;;10281248;28;20029;-67
2021/06/22 23:43:44;;;;;;;;;;;;;;;;;;10298873;28;20399;-67
2021/06/22 23:48:41;;;;;;;4.30;1.25;;;;;;;;;;10283064;28;19979;-66
2021/06/22 23:53:38;;;;;;;4.60;1.10;;;;;;;;;;10299359;28;20667;-67
2021/06/22 23:58:36;;;;;;;7.77;1.50;;;;;;;;;;10299160;28;20029;-67
